Time;durP1;ratioP1;P1;durP2;ratioP2;P2;SDS_P1;SDS_P2;PMS_P1;PMS_P2;Temp;Humidity;BMP_temperature;BMP_pressure;BME280_temperature;BME280_humidity;BME280_pressure;Samples;Min_cycle;Max_cycle;Signal;HPM_P1;HPM_P2
2022/07/29 00:03:03;;;;;;;3.95;3.58;;;;;;;;;;12551616;28;20052;-76
2022/07/29 00:09:05;;;;;;;3.78;3.47;;;;;;;;;;12549577;28;20041;-80
2022/07/29 00:15:07;;;;;;;4.80;4.35;;;;;;;;;;12547390;28;20036;-76
2022/07/29 00:21:08;;;;;;;6.88;6.13;;;;;;;;;;12555927;28;20048;-79
2022/07/29 00:27:10;;;;;;;4.40;3.88;;;;;;;;;;12548214;28;20048;-77
2022/07/29 00:33:12;;;;;;;4.75;3.03;;;;;;;;;;12547802;28;20032;-76
2022/07/29 00:39:14;;;;;;;2.67;2.00;;;;;;;;;;12550719;28;20064;-76
2022/07/29 00:45:16;;;;;;;2.97;1.80;;;;;;;;;;12546951;28;20075;-76
2022/07/29 00:51:17;;;;;;;3.25;1.60;;;;;;;;;;12546197;28;20036;-76
2022/07/29 00:57:20;;;;;;;2.03;1.70;;;;;;;;;;12549336;28;20025;-76
2022/07/29 01:03:22;;;;;;;1.92;1.50;;;;;;;;;;12550140;28;20052;-80
2022/07/29 01:09:24;;;;;;;1.50;1.40;;;;;;;;;;12548254;28;20056;-76
2022/07/29 01:15:26;;;;;;;1.08;0.93;;;;;;;;;;12556863;28;20033;-76
2022/07/29 01:21:41;;;;;;;1.63;1.08;;;;;;;;;;12546083;28;20044;-76
2022/07/29 01:27:46;;;;;;;2.55;0.85;;;;;;;;;;12545468;28;20503;-77
2022/07/29 01:33:51;;;;;;;1.10;1.00;;;;;;;;;;12547474;28;20048;-80
2022/07/29 01:39:54;;;;;;;1.33;0.95;;;;;;;;;;12543660;28;20041;-77
2022/07/29 01:46:00;;;;;;;0.80;0.80;;;;;;;;;;12549526;28;20519;-80
2022/07/29 01:52:06;;;;;;;1.02;0.90;;;;;;;;;;12544366;28;20055;-80
2022/07/29 01:58:08;;;;;;;0.80;0.80;;;;;;;;;;12546943;28;20060;-76
2022/07/29 02:04:11;;;;;;;0.93;0.80;;;;;;;;;;12549139;28;20041;-80
2022/07/29 02:10:13;;;;;;;1.17;1.08;;;;;;;;;;12552502;28;20020;-81
2022/07/29 02:16:15;;;;;;;0.82;0.80;;;;;;;;;;12543568;28;20044;-79
2022/07/29 02:22:19;;;;;;;0.90;0.70;;;;;;;;;;12542997;28;20033;-80
2022/07/29 02:28:22;;;;;;;0.80;0.80;;;;;;;;;;12546511;28;20041;-79
2022/07/29 02:34:25;;;;;;;0.98;0.65;;;;;;;;;;12550670;28;20477;-79
2022/07/29 02:40:26;;;;;;;1.33;1.02;;;;;;;;;;12554107;28;20053;-79
2022/07/29 02:46:31;;;;;;;1.55;1.10;;;;;;;;;;12553036;28;20037;-77
2022/07/29 02:52:38;;;;;;;1.33;1.23;;;;;;;;;;12552328;28;20385;-80
2022/07/29 02:58:45;;;;;;;1.10;1.10;;;;;;;;;;12554401;28;20037;-79
2022/07/29 03:04:48;;;;;;;1.00;0.90;;;;;;;;;;12551296;28;20401;-80
2022/07/29 03:10:51;;;;;;;1.33;1.23;;;;;;;;;;12552264;28;20032;-76
2022/07/29 03:16:53;;;;;;;1.30;1.20;;;;;;;;;;12553594;28;20020;-76
2022/07/29 03:22:55;;;;;;;1.25;0.90;;;;;;;;;;12533398;28;20041;-76
2022/07/29 03:28:57;;;;;;;1.10;0.85;;;;;;;;;;12550970;28;20056;-76
2022/07/29 03:34:58;;;;;;;;;;;;;;;;;;12553404;28;20400;-76
2022/07/29 03:41:02;;;;;;;1.33;1.23;;;;;;;;;;12549429;28;19921;-75
2022/07/29 03:47:04;;;;;;;1.40;1.30;;;;;;;;;;12549865;28;20306;-76
2022/07/29 03:53:06;;;;;;;1.30;1.13;;;;;;;;;;12548490;28;20025;-80
2022/07/29 03:59:08;;;;;;;;;;;;;;;;;;12547250;28;20485;-80
2022/07/29 04:05:13;;;;;;;1.10;0.93;;;;;;;;;;12548026;28;19917;-76
2022/07/29 04:11:15;;;;;;;1.13;1.10;;;;;;;;;;12549020;28;20376;-76
2022/07/29 04:17:17;;;;;;;2.15;1.30;;;;;;;;;;12548232;28;20037;-78
2022/07/29 04:23:18;;;;;;;;;;;;;;;;;;12532441;28;20045;-75
2022/07/29 04:29:20;;;;;;;1.58;1.48;;;;;;;;;;12546468;28;19908;-79
2022/07/29 04:35:22;;;;;;;2.75;2.22;;;;;;;;;;12546463;28;20044;-79
2022/07/29 04:41:24;;;;;;;;;;;;;;;;;;12551196;28;20053;-76
2022/07/29 04:47:25;;;;;;;1.50;1.43;;;;;;;;;;12545830;28;19923;-76
2022/07/29 04:53:27;;;;;;;;;;;;;;;;;;12547850;28;20029;-76
2022/07/29 04:59:29;;;;;;;1.70;1.60;;;;;;;;;;12546142;28;19916;-76
2022/07/29 05:05:31;;;;;;;2.05;1.70;;;;;;;;;;12548829;28;20108;-79
2022/07/29 05:11:33;;;;;;;2.28;2.03;;;;;;;;;;12544637;28;20051;-79
2022/07/29 05:17:34;;;;;;;2.15;1.95;;;;;;;;;;12543399;28;20048;-80
2022/07/29 05:23:36;;;;;;;3.17;2.88;;;;;;;;;;12543601;28;20049;-79
2022/07/29 05:29:38;;;;;;;2.78;1.70;;;;;;;;;;12556239;28;20040;-79
2022/07/29 05:35:40;;;;;;;1.98;1.80;;;;;;;;;;12551248;28;20032;-79
2022/07/29 05:41:42;;;;;;;;;;;;;;;;;;12545665;28;20053;-79
2022/07/29 05:47:43;;;;;;;1.90;1.60;;;;;;;;;;12526942;28;19917;-79
2022/07/29 05:53:45;;;;;;;2.10;1.90;;;;;;;;;;12547527;28;20041;-76
2022/07/29 05:59:47;;;;;;;1.67;1.58;;;;;;;;;;12546765;28;20033;-80
2022/07/29 06:05:49;;;;;;;2.88;2.13;;;;;;;;;;12547936;28;20068;-80
2022/07/29 06:11:51;;;;;;;2.90;2.10;;;;;;;;;;12551137;28;20068;-77
2022/07/29 06:17:53;;;;;;;2.80;2.33;;;;;;;;;;12563717;28;20366;-80
2022/07/29 06:23:54;;;;;;;2.20;1.95;;;;;;;;;;12552518;28;20128;-81
2022/07/29 06:29:57;;;;;;;2.03;1.88;;;;;;;;;;12551998;28;20037;-80
2022/07/29 06:35:59;;;;;;;2.80;2.22;;;;;;;;;;12553650;28;20036;-77
2022/07/29 06:42:01;;;;;;;2.25;2.03;;;;;;;;;;12551834;28;20061;-79
2022/07/29 06:48:03;;;;;;;2.03;1.50;;;;;;;;;;12551009;28;20041;-77
2022/07/29 06:54:05;;;;;;;1.60;1.50;;;;;;;;;;12561578;28;20044;-80
2022/07/29 07:00:07;;;;;;;1.90;1.80;;;;;;;;;;12551266;28;20037;-77
2022/07/29 07:06:09;;;;;;;1.33;1.23;;;;;;;;;;12556328;28;20510;-77
2022/07/29 07:12:11;;;;;;;2.10;1.90;;;;;;;;;;12553739;28;20048;-79
2022/07/29 07:18:13;;;;;;;1.90;1.80;;;;;;;;;;12551010;28;20365;-77
2022/07/29 07:24:15;;;;;;;2.00;1.50;;;;;;;;;;12550470;28;20416;-77
2022/07/29 07:30:17;;;;;;;1.40;1.33;;;;;;;;;;12553457;28;20059;-77
2022/07/29 07:36:18;;;;;;;2.05;1.40;;;;;;;;;;12549723;28;20469;-80
2022/07/29 07:42:20;;;;;;;2.25;1.60;;;;;;;;;;12550093;28;20056;-77
2022/07/29 07:48:22;;;;;;;2.60;1.80;;;;;;;;;;12549525;28;20048;-76
2022/07/29 07:54:23;;;;;;;1.88;1.60;;;;;;;;;;12550545;28;20029;-80
2022/07/29 08:00:25;;;;;;;2.38;2.17;;;;;;;;;;12531709;28;20040;-76
2022/07/29 08:06:27;;;;;;;2.17;1.50;;;;;;;;;;12547854;28;20392;-76
2022/07/29 08:12:28;;;;;;;1.63;1.52;;;;;;;;;;12548334;28;20052;-76
2022/07/29 08:18:31;;;;;;;1.50;1.40;;;;;;;;;;12551726;28;20048;-80
2022/07/29 08:30:53;;;;;;;1.77;1.63;;;;;;;;;;12548649;28;20033;-81
2022/07/29 08:36:55;;;;;;;1.67;1.58;;;;;;;;;;12550462;28;20520;-80
2022/07/29 08:42:57;;;;;;;2.30;2.10;;;;;;;;;;12547770;28;20404;-76
2022/07/29 08:48:59;;;;;;;1.80;1.70;;;;;;;;;;12549378;28;20017;-76
2022/07/29 08:55:01;;;;;;;2.78;1.65;;;;;;;;;;12545150;28;20040;-80
2022/07/29 09:01:03;;;;;;;1.75;1.65;;;;;;;;;;12546802;28;20480;-79
2022/07/29 09:07:05;;;;;;;1.40;1.30;;;;;;;;;;12545041;28;20045;-80
2022/07/29 09:13:08;;;;;;;1.63;1.40;;;;;;;;;;12547551;28;20036;-75
2022/07/29 09:19:34;;;;;;;1.50;1.40;;;;;;;;;;12546292;28;20055;-79
2022/07/29 09:25:36;;;;;;;1.77;1.60;;;;;;;;;;12547116;28;20049;-76
2022/07/29 09:31:40;;;;;;;1.35;1.25;;;;;;;;;;12547072;28;20546;-79
2022/07/29 09:37:42;;;;;;;1.15;1.05;;;;;;;;;;12543903;28;20032;-76
2022/07/29 09:43:53;;;;;;;1.58;1.48;;;;;;;;;;12551476;28;20041;-79
2022/07/29 09:49:59;;;;;;;1.50;1.40;;;;;;;;;;12555789;28;20033;-76
2022/07/29 09:56:01;;;;;;;1.88;1.73;;;;;;;;;;12553645;28;20040;-80
2022/07/29 10:02:11;;;;;;;1.65;1.55;;;;;;;;;;12554823;28;20037;-76
2022/07/29 10:08:13;;;;;;;1.70;1.20;;;;;;;;;;12553762;28;20484;-79
2022/07/29 10:14:15;;;;;;;2.10;1.50;;;;;;;;;;12557680;28;20040;-78
2022/07/29 10:20:17;;;;;;;1.70;1.60;;;;;;;;;;12538685;28;20139;-76
2022/07/29 10:26:20;;;;;;;2.40;1.52;;;;;;;;;;12552141;28;20489;-80
2022/07/29 10:32:41;;;;;;;1.42;1.20;;;;;;;;;;12553163;28;20423;-78
2022/07/29 10:38:42;;;;;;;2.38;2.17;;;;;;;;;;12554053;28;20112;-77
2022/07/29 10:44:45;;;;;;;2.13;2.03;;;;;;;;;;12552889;28;20434;-77
2022/07/29 10:50:58;;;;;;;1.98;1.77;;;;;;;;;;12558299;28;20124;-80
2022/07/29 10:57:15;;;;;;;1.95;1.85;;;;;;;;;;12552855;28;20041;-77
2022/07/29 11:03:36;;;;;;;1.88;1.77;;;;;;;;;;12553566;28;20032;-80
2022/07/29 11:09:38;;;;;;;2.38;2.17;;;;;;;;;;12558721;28;20029;-76
2022/07/29 11:16:09;;;;;;;2.28;2.05;;;;;;;;;;12557145;28;20048;-76
2022/07/29 11:22:12;;;;;;;3.20;2.00;;;;;;;;;;12556395;28;20536;-79
2022/07/29 11:28:19;;;;;;;1.65;1.55;;;;;;;;;;12562301;28;20044;-77
2022/07/29 11:34:35;;;;;;;1.27;1.17;;;;;;;;;;12551816;28;20052;-77
2022/07/29 11:40:37;;;;;;;1.15;1.08;;;;;;;;;;12550108;28;20060;-76
2022/07/29 11:46:47;;;;;;;2.13;1.90;;;;;;;;;;12551155;28;20059;-76
2022/07/29 11:52:49;;;;;;;1.52;1.30;;;;;;;;;;12552161;28;20047;-79
2022/07/29 11:58:51;;;;;;;2.28;1.70;;;;;;;;;;12550032;28;20044;-78
2022/07/29 12:04:54;;;;;;;1.50;1.40;;;;;;;;;;12549007;28;20048;-77
2022/07/29 12:10:55;;;;;;;2.17;2.08;;;;;;;;;;12550065;28;20052;-77
2022/07/29 12:16:58;;;;;;;2.15;1.95;;;;;;;;;;12549083;28;20041;-80
2022/07/29 12:23:05;;;;;;;2.17;1.98;;;;;;;;;;12548120;28;20388;-76
2022/07/29 12:29:06;;;;;;;1.40;1.30;;;;;;;;;;12550320;28;20394;-76
2022/07/29 12:35:10;;;;;;;2.38;1.17;;;;;;;;;;12548309;28;20515;-78
2022/07/29 12:41:12;;;;;;;1.15;1.02;;;;;;;;;;12549318;28;20061;-79
2022/07/29 12:47:14;;;;;;;1.05;1.05;;;;;;;;;;12547112;28;20049;-79
2022/07/29 12:53:15;;;;;;;1.73;1.20;;;;;;;;;;12548515;28;20064;-77
2022/07/29 12:59:18;;;;;;;1.48;1.38;;;;;;;;;;12550170;28;20048;-77
2022/07/29 13:05:20;;;;;;;1.67;1.58;;;;;;;;;;12546558;28;20044;-76
2022/07/29 13:11:49;;;;;;;1.52;1.40;;;;;;;;;;12547397;28;20048;-79
2022/07/29 13:17:50;;;;;;;1.60;1.50;;;;;;;;;;12544960;28;20048;-76
2022/07/29 13:23:52;;;;;;;1.55;1.45;;;;;;;;;;12544909;28;20052;-77
2022/07/29 13:29:57;;;;;;;1.55;1.17;;;;;;;;;;12549609;28;20032;-77
2022/07/29 13:36:00;;;;;;;1.63;1.50;;;;;;;;;;12547718;28;20385;-79
2022/07/29 13:42:02;;;;;;;2.10;1.13;;;;;;;;;;12545648;28;20059;-79
2022/07/29 13:48:04;;;;;;;1.60;1.50;;;;;;;;;;12544495;28;20203;-76
2022/07/29 13:54:06;;;;;;;1.50;1.30;;;;;;;;;;12545710;28;20047;-77
2022/07/29 14:00:08;;;;;;;2.10;1.55;;;;;;;;;;12543467;28;20075;-77
2022/07/29 14:06:10;;;;;;;1.35;1.25;;;;;;;;;;12547013;28;20044;-77
2022/07/29 14:12:11;;;;;;;1.42;1.33;;;;;;;;;;12549042;28;20421;-77
2022/07/29 14:18:13;;;;;;;1.50;1.40;;;;;;;;;;12551041;28;20088;-79
2022/07/29 14:24:15;;;;;;;2.00;1.83;;;;;;;;;;12546852;28;20044;-80
2022/07/29 14:30:17;;;;;;;2.22;1.58;;;;;;;;;;12552270;28;20037;-76
2022/07/29 14:36:18;;;;;;;1.33;1.20;;;;;;;;;;12555499;28;20040;-76
2022/07/29 14:42:20;;;;;;;2.55;1.70;;;;;;;;;;12555332;28;20056;-78
2022/07/29 14:48:22;;;;;;;2.03;1.80;;;;;;;;;;12559958;28;20040;-76
2022/07/29 14:54:24;;;;;;;1.80;1.70;;;;;;;;;;12552513;28;20414;-76
2022/07/29 15:00:26;;;;;;;1.33;1.23;;;;;;;;;;12557535;28;20033;-80
2022/07/29 15:06:27;;;;;;;1.30;1.20;;;;;;;;;;12552765;28;20060;-79
2022/07/29 15:12:29;;;;;;;1.17;1.17;;;;;;;;;;12551766;28;20037;-79
2022/07/29 15:18:31;;;;;;;1.10;1.10;;;;;;;;;;12551521;28;20037;-79
2022/07/29 15:24:32;;;;;;;1.25;1.20;;;;;;;;;;12552994;28;20386;-76
2022/07/29 15:30:40;;;;;;;1.60;1.25;;;;;;;;;;12551333;28;20025;-77
2022/07/29 15:36:42;;;;;;;1.17;1.08;;;;;;;;;;12549602;28;20029;-80
2022/07/29 15:42:43;;;;;;;2.25;1.20;;;;;;;;;;12549837;28;20068;-79
2022/07/29 15:48:45;;;;;;;1.25;1.15;;;;;;;;;;12550985;28;20408;-80
2022/07/29 15:54:47;;;;;;;0.90;0.90;;;;;;;;;;12548467;28;20044;-79
2022/07/29 16:00:49;;;;;;;1.35;1.02;;;;;;;;;;12547771;28;20033;-80
2022/07/29 16:06:51;;;;;;;2.35;0.93;;;;;;;;;;12547967;28;20045;-76
2022/07/29 16:12:52;;;;;;;1.40;1.30;;;;;;;;;;12548191;28;20029;-80
2022/07/29 16:18:54;;;;;;;1.08;1.02;;;;;;;;;;12548151;28;20033;-80
2022/07/29 16:24:56;;;;;;;1.30;0.90;;;;;;;;;;12537873;28;20515;-79
2022/07/29 16:30:58;;;;;;;1.13;1.13;;;;;;;;;;12546591;28;20040;-79
2022/07/29 16:37:00;;;;;;;1.75;0.93;;;;;;;;;;12550863;28;20060;-77
2022/07/29 16:43:01;;;;;;;1.40;0.98;;;;;;;;;;12550629;28;20135;-80
2022/07/29 16:49:03;;;;;;;1.15;1.05;;;;;;;;;;12546953;28;20049;-77
2022/07/29 16:55:05;;;;;;;1.10;1.00;;;;;;;;;;12546270;28;20033;-80
2022/07/29 17:01:07;;;;;;;1.00;1.00;;;;;;;;;;12551980;28;20036;-80
2022/07/29 17:07:09;;;;;;;1.23;1.13;;;;;;;;;;12544717;28;20075;-76
2022/07/29 17:13:10;;;;;;;1.00;0.85;;;;;;;;;;12550285;28;20485;-76
2022/07/29 17:19:12;;;;;;;2.00;1.20;;;;;;;;;;12548322;28;20036;-79
2022/07/29 17:25:14;;;;;;;1.00;0.88;;;;;;;;;;12552548;28;20393;-75
2022/07/29 17:31:16;;;;;;;1.73;1.50;;;;;;;;;;12549929;28;20037;-78
2022/07/29 17:37:18;;;;;;;1.00;1.00;;;;;;;;;;12550438;28;20481;-79
2022/07/29 17:43:20;;;;;;;1.85;1.48;;;;;;;;;;12545318;28;20493;-79
2022/07/29 17:49:22;;;;;;;2.33;1.70;;;;;;;;;;12545678;28;20037;-80
2022/07/29 17:55:24;;;;;;;7.47;2.40;;;;;;;;;;12547847;28;20048;-80
2022/07/29 18:01:25;;;;;;;6.25;2.10;;;;;;;;;;12543166;28;20384;-76
2022/07/29 18:07:27;;;;;;;7.85;2.17;;;;;;;;;;12551181;28;20036;-76
2022/07/29 18:13:29;;;;;;;3.83;1.20;;;;;;;;;;12553677;28;20373;-79
2022/07/29 18:19:31;;;;;;;4.05;1.70;;;;;;;;;;12536908;28;20033;-77
2022/07/29 18:25:32;;;;;;;2.15;1.63;;;;;;;;;;12559238;28;20049;-80
2022/07/29 18:31:34;;;;;;;2.88;2.13;;;;;;;;;;12553340;28;20032;-80
2022/07/29 18:37:36;;;;;;;2.13;1.55;;;;;;;;;;12558180;28;20033;-80
2022/07/29 18:43:37;;;;;;;2.30;1.70;;;;;;;;;;12553538;28;20071;-77
2022/07/29 18:49:39;;;;;;;6.13;2.40;;;;;;;;;;12556426;28;20063;-81
2022/07/29 18:55:41;;;;;;;2.67;2.13;;;;;;;;;;12551070;28;20480;-80
2022/07/29 19:01:43;;;;;;;3.30;2.08;;;;;;;;;;12558251;28;20037;-79
2022/07/29 19:07:45;;;;;;;3.35;2.45;;;;;;;;;;12551721;28;20484;-81
2022/07/29 19:13:47;;;;;;;3.47;2.55;;;;;;;;;;12554589;28;20488;-76
2022/07/29 19:19:52;;;;;;;3.88;2.80;;;;;;;;;;12555756;28;20044;-76
2022/07/29 19:25:54;;;;;;;2.95;2.35;;;;;;;;;;12554177;28;20036;-76
2022/07/29 19:31:55;;;;;;;2.13;2.03;;;;;;;;;;12553418;28;20401;-80
2022/07/29 19:37:57;;;;;;;;;;;;;;;;;;12552796;28;20040;-80
2022/07/29 19:43:59;;;;;;;2.40;1.80;;;;;;;;;;12555864;28;20380;-81
2022/07/29 19:50:00;;;;;;;;;;;;;;;;;;12551488;28;20039;-76
2022/07/29 19:56:02;;;;;;;1.08;1.08;;;;;;;;;;12550671;28;19909;-78
2022/07/29 20:02:04;;;;;;;2.00;1.90;;;;;;;;;;12553952;28;20048;-76
2022/07/29 20:08:06;;;;;;;2.10;1.92;;;;;;;;;;12547862;28;20063;-75
2022/07/29 20:14:08;;;;;;;1.70;1.60;;;;;;;;;;12551519;28;20043;-80
2022/07/29 20:20:10;;;;;;;1.13;1.02;;;;;;;;;;12551778;28;20057;-79
2022/07/29 20:26:12;;;;;;;1.30;1.02;;;;;;;;;;12547543;28;20059;-76
2022/07/29 20:32:14;;;;;;;1.13;1.02;;;;;;;;;;12547368;28;20393;-76
2022/07/29 20:38:16;;;;;;;1.13;1.00;;;;;;;;;;12548260;28;20037;-76
2022/07/29 20:44:18;;;;;;;1.75;1.48;;;;;;;;;;12546013;28;20076;-79
2022/07/29 20:50:22;;;;;;;1.00;0.90;;;;;;;;;;12543993;28;20033;-76
2022/07/29 20:56:23;;;;;;;1.30;1.20;;;;;;;;;;12543103;28;20040;-80
2022/07/29 21:02:26;;;;;;;2.28;1.40;;;;;;;;;;12541608;28;20056;-77
2022/07/29 21:08:27;;;;;;;1.85;1.75;;;;;;;;;;12544228;28;20068;-76
2022/07/29 21:20:37;;;;;;;1.73;1.63;;;;;;;;;;12544055;28;20032;-76
2022/07/29 21:26:40;;;;;;;3.00;1.52;;;;;;;;;;12543782;28;20040;-76
2022/07/29 21:32:41;;;;;;;;;;;;;;;;;;12544286;28;20472;-76
2022/07/29 21:38:43;;;;;;;1.27;1.23;;;;;;;;;;12542074;28;19915;-80
2022/07/29 21:44:44;;;;;;;;;;;;;;;;;;12528274;28;20295;-80
2022/07/29 21:50:47;;;;;;;1.45;1.08;;;;;;;;;;12544319;28;19916;-80
2022/07/29 21:56:49;;;;;;;2.25;1.33;;;;;;;;;;12524258;28;20032;-76
2022/07/29 22:02:50;;;;;;;;;;;;;;;;;;12548074;28;20048;-80
2022/07/29 22:08:52;;;;;;;0.90;0.90;;;;;;;;;;12543190;28;19943;-76
2022/07/29 22:14:53;;;;;;;;;;;;;;;;;;12541860;28;20123;-79
2022/07/29 22:20:55;;;;;;;2.43;1.17;;;;;;;;;;12526720;28;19935;-79
2022/07/29 22:26:57;;;;;;;0.82;0.75;;;;;;;;;;12542082;28;20674;-76
2022/07/29 22:32:58;;;;;;;;;;;;;;;;;;12544279;28;20021;-80
2022/07/29 22:39:00;;;;;;;0.80;0.80;;;;;;;;;;12539576;28;19920;-77
2022/07/29 22:45:01;;;;;;;;;;;;;;;;;;12544992;28;20126;-76
2022/07/29 22:51:03;;;;;;;0.70;0.52;;;;;;;;;;12543653;28;19920;-76
2022/07/29 22:57:06;;;;;;;1.15;0.80;;;;;;;;;;12548243;28;20508;-76
2022/07/29 23:03:07;;;;;;;0.77;0.70;;;;;;;;;;12547888;28;20041;-76
2022/07/29 23:09:09;;;;;;;;;;;;;;;;;;12548448;28;20037;-80
2022/07/29 23:15:11;;;;;;;0.70;0.70;;;;;;;;;;12549050;28;19916;-76
2022/07/29 23:21:12;;;;;;;1.02;0.60;;;;;;;;;;12549833;28;20037;-76
2022/07/29 23:27:14;;;;;;;;;;;;;;;;;;12531634;28;20044;-75
2022/07/29 23:33:16;;;;;;;0.90;0.80;;;;;;;;;;12553440;28;19912;-74
2022/07/29 23:39:17;;;;;;;;;;;;;;;;;;12554093;28;20291;-77
2022/07/29 23:45:19;;;;;;;0.70;0.70;;;;;;;;;;12548512;28;19921;-80
2022/07/29 23:51:22;;;;;;;0.77;0.77;;;;;;;;;;12546079;28;20060;-79
2022/07/29 23:57:25;;;;;;;0.93;0.93;;;;;;;;;;12549176;28;20499;-79
